createdAt,value
2023-04-01T00:04:42.808Z,10.20
2023-04-01T00:09:46.184Z,10.20
2023-04-01T00:14:47.900Z,10.20
2023-04-01T00:19:49.668Z,10.20
2023-04-01T00:24:52.965Z,10.10
2023-04-01T00:29:54.642Z,10.20
2023-04-01T00:34:58.801Z,10.10
2023-04-01T00:40:02.645Z,10.10
2023-04-01T00:45:31.185Z,10.10
2023-04-01T00:50:35.151Z,10.10
2023-04-01T00:55:44.520Z,10.10
2023-04-01T01:00:48.881Z,10.10
2023-04-01T01:06:10.825Z,10.10
2023-04-01T01:11:19.775Z,10.10
2023-04-01T01:16:26.761Z,10.10
2023-04-01T01:22:07.455Z,10.10
2023-04-01T01:27:12.132Z,10.00
2023-04-01T01:32:25.911Z,10.00
2023-04-01T01:37:32.011Z,10.00
2023-04-01T01:42:37.671Z,10.00
2023-04-01T01:47:41.431Z,10.00
2023-04-01T01:52:44.576Z,10.00
2023-04-01T01:57:46.819Z,9.90
2023-04-01T02:02:49.902Z,10.00
2023-04-01T02:08:00.536Z,9.90
2023-04-01T02:13:08.815Z,9.90
2023-04-01T02:18:11.624Z,10.00
2023-04-01T02:23:15.447Z,9.90
2023-04-01T02:28:19.050Z,9.90
2023-04-01T02:33:21.493Z,9.90
2023-04-01T02:38:25.136Z,9.90
2023-04-01T02:43:27.160Z,9.90
2023-04-01T02:48:29.009Z,9.80
2023-04-01T02:53:32.194Z,9.80
2023-04-01T02:58:33.958Z,9.80
2023-04-01T03:03:35.747Z,9.70
2023-04-01T03:08:39.412Z,9.70
2023-04-01T03:13:41.167Z,9.60
2023-04-01T03:18:42.877Z,9.60
2023-04-01T03:23:45.965Z,9.60
2023-04-01T03:28:47.711Z,9.70
2023-04-01T03:33:49.488Z,9.60
2023-04-01T03:38:52.495Z,9.70
2023-04-01T03:43:54.777Z,9.70
2023-04-01T03:48:56.499Z,9.70
2023-04-01T03:53:59.604Z,9.70
2023-04-01T03:59:04.135Z,9.70
2023-04-01T04:04:06.858Z,9.70
2023-04-01T04:09:09.957Z,9.70
2023-04-01T04:14:11.704Z,9.70
2023-04-01T04:19:13.393Z,9.70
2023-04-01T04:24:16.616Z,9.80
2023-04-01T04:29:18.318Z,9.80
2023-04-01T04:34:20.005Z,9.80
2023-04-01T04:39:23.022Z,9.80
2023-04-01T04:44:24.695Z,9.80
2023-04-01T04:49:26.515Z,9.80
2023-04-01T04:54:30.392Z,9.90
2023-04-01T04:59:32.135Z,9.80
2023-04-01T05:04:36.210Z,9.90
2023-04-01T05:09:39.276Z,9.80
2023-04-01T05:14:40.916Z,9.90
2023-04-01T05:19:42.562Z,9.90
2023-04-01T05:24:45.603Z,9.90
2023-04-01T05:29:47.358Z,9.90
2023-04-01T05:34:51.561Z,9.90
2023-04-01T05:39:54.647Z,9.80
2023-04-01T05:44:56.309Z,9.90
2023-04-01T05:49:58.014Z,9.80
2023-04-01T05:55:01.189Z,9.70
2023-04-01T06:00:03.470Z,9.70
2023-04-01T06:05:14.893Z,9.60
2023-04-01T06:10:19.920Z,9.50
2023-04-01T06:15:35.324Z,9.60
2023-04-01T06:20:43.925Z,9.60
2023-04-01T06:26:10.647Z,9.60
2023-04-01T06:31:22.630Z,9.70
2023-04-01T06:36:42.795Z,9.80
2023-04-01T06:42:10.863Z,9.80
2023-04-01T06:47:29.973Z,9.80
2023-04-01T06:52:41.807Z,9.90
2023-04-01T06:57:47.912Z,9.90
2023-04-01T07:02:55.002Z,9.90
2023-04-01T07:08:00.932Z,9.90
2023-04-01T07:13:07.561Z,9.80
2023-04-01T07:18:14.430Z,9.90
2023-04-01T07:23:22.042Z,10.00
2023-04-01T07:28:25.052Z,10.10
2023-04-01T07:33:34.978Z,10.10
2023-04-01T07:38:45.993Z,10.20
2023-04-01T07:43:58.631Z,10.20
2023-04-01T07:49:07.293Z,10.20
2023-04-01T07:54:15.118Z,10.20
2023-04-01T07:59:23.279Z,10.20
2023-04-01T08:04:36.964Z,10.20
2023-04-01T08:09:46.298Z,10.20
2023-04-01T08:14:57.384Z,10.30
2023-04-01T08:20:11.833Z,10.40
2023-04-01T08:25:20.284Z,10.40
2023-04-01T08:30:26.074Z,10.40
2023-04-01T08:35:32.904Z,10.10
2023-04-01T08:40:56.123Z,9.80
2023-04-01T08:46:49.283Z,9.80
2023-04-01T08:52:24.372Z,9.70
2023-04-01T08:57:41.656Z,9.70
2023-04-01T09:03:14.836Z,9.80
2023-04-01T09:08:32.364Z,9.90
2023-04-01T09:14:03.237Z,10.00
2023-04-01T09:19:21.829Z,10.20
2023-04-01T09:24:40.988Z,10.20
2023-04-01T09:30:19.437Z,10.30
2023-04-01T09:35:30.278Z,10.30
2023-04-01T09:40:44.750Z,10.30
2023-04-01T09:46:10.343Z,10.40
2023-04-01T09:51:32.021Z,10.40
2023-04-01T09:56:59.728Z,10.60
2023-04-01T10:02:38.081Z,10.60
2023-04-01T10:08:03.630Z,10.70
2023-04-01T10:13:31.423Z,10.80
2023-04-01T10:19:12.400Z,10.90
2023-04-01T10:24:49.010Z,10.90
2023-04-01T10:30:37.501Z,11.00
2023-04-01T10:36:24.839Z,11.20
2023-04-01T10:42:07.313Z,11.10
2023-04-01T10:47:40.104Z,11.00
2023-04-01T10:53:18.534Z,10.80
2023-04-01T10:59:00.264Z,10.80
2023-04-01T11:04:44.381Z,10.90
2023-04-01T11:10:27.657Z,11.20
2023-04-01T11:15:59.023Z,11.40
2023-04-01T11:21:27.946Z,11.60
2023-04-01T11:26:46.842Z,11.70
2023-04-01T11:32:03.530Z,11.90
2023-04-01T11:37:16.930Z,12.00
2023-04-01T11:42:29.549Z,11.90
2023-04-01T11:47:59.643Z,12.00
2023-04-01T11:53:18.516Z,12.00
2023-04-01T11:58:37.688Z,11.90
2023-04-01T12:03:57.846Z,11.80
2023-04-01T12:09:05.844Z,11.90
2023-04-01T12:14:17.654Z,11.90
2023-04-01T12:19:29.812Z,11.90
2023-04-01T12:24:46.512Z,11.70
2023-04-01T12:30:21.982Z,11.70
2023-04-01T12:35:27.968Z,11.60
2023-04-01T12:40:52.417Z,11.60
2023-04-01T12:46:04.388Z,11.70
2023-04-01T12:51:34.968Z,11.40
2023-04-01T12:56:45.986Z,11.20
2023-04-01T13:02:01.821Z,11.10
2023-04-01T13:07:38.786Z,11.20
2023-04-01T13:13:00.272Z,10.90
2023-04-01T13:18:15.985Z,10.80
2023-04-01T13:23:33.820Z,10.80
2023-04-01T13:28:40.171Z,10.60
2023-04-01T13:33:49.608Z,10.60
2023-04-01T13:39:12.400Z,10.80
2023-04-01T13:44:17.977Z,10.70
2023-04-01T13:49:49.325Z,10.70
2023-04-01T14:00:46.449Z,10.50
2023-04-01T14:06:03.220Z,10.60
2023-04-01T14:11:17.526Z,10.70
2023-04-01T14:16:36.172Z,10.80
2023-04-01T14:21:44.209Z,10.80
2023-04-01T14:27:19.854Z,10.70
2023-04-01T14:32:29.497Z,10.70
2023-04-01T14:38:02.873Z,10.70
2023-04-01T14:43:21.601Z,10.90
2023-04-01T14:48:29.855Z,11.00
2023-04-01T14:53:37.341Z,11.00
2023-04-01T14:58:45.500Z,10.90
2023-04-01T15:03:57.401Z,10.80
2023-04-01T15:09:06.887Z,10.70
2023-04-01T15:14:38.799Z,10.50
2023-04-01T15:19:55.825Z,10.40
2023-04-01T15:25:14.252Z,10.40
2023-04-01T15:30:29.884Z,10.40
2023-04-01T15:35:40.348Z,10.40
2023-04-01T15:40:49.288Z,10.50
2023-04-01T15:45:58.952Z,10.70
2023-04-01T15:51:24.594Z,10.80
2023-04-01T15:56:44.509Z,10.90
2023-04-01T16:01:55.217Z,11.00
2023-04-01T16:07:10.652Z,10.90
2023-04-01T16:12:18.853Z,11.00
2023-04-01T16:17:31.929Z,11.00
2023-04-01T16:22:38.252Z,10.90
2023-04-01T16:27:52.383Z,10.80
2023-04-01T16:32:59.164Z,10.80
2023-04-01T16:38:09.036Z,10.80
2023-04-01T16:43:22.649Z,10.80
2023-04-01T16:48:29.275Z,10.80
2023-04-01T16:53:42.208Z,10.80
2023-04-01T16:59:02.258Z,10.70
2023-04-01T17:04:14.999Z,10.60
2023-04-01T17:09:36.169Z,10.70
2023-04-01T17:14:48.103Z,10.70
2023-04-01T17:20:13.756Z,10.50
2023-04-01T17:25:30.794Z,10.60
2023-04-01T17:30:36.789Z,10.40
2023-04-01T17:35:44.729Z,10.40
2023-04-01T17:41:00.382Z,10.30
2023-04-01T17:46:20.676Z,10.20
2023-04-01T17:51:29.966Z,10.20
2023-04-01T17:56:46.443Z,10.10
2023-04-01T18:01:59.069Z,10.10
2023-04-01T18:12:56.518Z,9.90
2023-04-01T18:18:17.147Z,9.80
2023-04-01T18:23:28.323Z,9.90
2023-04-01T18:28:36.983Z,9.80
2023-04-01T18:33:49.721Z,9.80
2023-04-01T18:38:55.514Z,9.90
2023-04-01T18:44:08.353Z,9.90
2023-04-01T18:49:22.907Z,9.90
2023-04-01T18:54:30.177Z,9.80
2023-04-01T18:59:39.670Z,9.80
2023-04-01T19:04:46.620Z,9.70
2023-04-01T19:09:50.206Z,9.70
2023-04-01T19:15:03.413Z,9.70
2023-04-01T19:20:17.453Z,9.60
2023-04-01T19:25:34.878Z,9.60
2023-04-01T19:30:49.860Z,9.60
2023-04-01T19:36:03.527Z,9.60
2023-04-01T19:41:22.100Z,9.50
2023-04-01T19:46:30.679Z,9.40
2023-04-01T19:51:41.658Z,9.50
2023-04-01T19:56:49.741Z,9.40
2023-04-01T20:02:00.083Z,9.50
2023-04-01T20:07:10.729Z,9.40
2023-04-01T20:12:24.389Z,9.50
2023-04-01T20:17:31.568Z,9.30
2023-04-01T20:22:56.804Z,9.30
2023-04-01T20:28:04.955Z,9.30
2023-04-01T20:33:29.488Z,9.20
2023-04-01T20:39:09.248Z,9.00
2023-04-01T20:44:13.647Z,9.00
2023-04-01T20:49:39.758Z,8.90
2023-04-01T20:54:56.640Z,8.90
2023-04-01T21:00:12.391Z,8.90
2023-04-01T21:05:46.110Z,8.90
2023-04-01T21:11:00.434Z,9.00
2023-04-01T21:16:20.590Z,9.00
2023-04-01T21:21:41.283Z,9.00
2023-04-01T21:26:53.385Z,8.90
2023-04-01T21:32:10.181Z,8.90
2023-04-01T21:37:37.669Z,8.90
2023-04-01T21:42:46.946Z,9.00
2023-04-01T21:48:13.607Z,9.10
2023-04-01T21:53:56.965Z,9.10
2023-04-01T21:59:39.782Z,9.20
2023-04-01T22:04:57.568Z,9.20
2023-04-01T22:10:07.127Z,9.20
2023-04-01T22:15:21.203Z,9.20
2023-04-01T22:20:36.161Z,9.20
2023-04-01T22:25:56.482Z,9.10
2023-04-01T22:37:36.780Z,9.00
2023-04-01T22:42:44.183Z,9.10
2023-04-01T22:47:57.199Z,9.10
2023-04-01T22:53:07.330Z,9.00
2023-04-01T22:58:13.904Z,9.10
2023-04-01T23:03:22.133Z,9.10
2023-04-01T23:08:54.173Z,9.00
2023-04-01T23:14:06.230Z,9.00
2023-04-01T23:19:16.554Z,8.90
2023-04-01T23:24:26.478Z,8.90
2023-04-01T23:29:28.931Z,8.90
2023-04-01T23:34:33.533Z,8.80
2023-04-01T23:39:37.562Z,8.80
2023-04-01T23:44:39.816Z,8.80
2023-04-01T23:49:45.777Z,8.90
2023-04-01T23:54:52.314Z,8.90
